Pagrindinis puslapis
METAR-TAF:

METAR-TAF

Oro uostai :

Ojapokė, Amapa, Brazilija

platuma: 03-50N, ilguma: 051-50W, Aukštis: 39 m

Dabartinis oras

Ataskaita buvo paskelbta 1 valandą ir 35 minutes, ne 20:00 UTC
Vėjas 9 kt iš Rytų/Šiaurės Rytų, svyruoja nuo Šiaurės/Šiaurės Rytų ir Rytų
Temperatūra 30°C
Drėgmė 66%
Slėgis 1007 hPa
Matomumas 10 km arba daugiau
Išsisklaidę debesys ne aukštis 3600 ft

METAR: SBOI 122000Z 06009KT 030V090 9999 SCT036 30/23 Q1007

Laikas: 18:35 (21:35 UTC)

Prognozė

Ataskaita buvo paskelbta 6 valandos ir 35 minutes, ne 15:00 UTC
Prognozė galioja nuo 12 metu 18 UTC su 13 metu 06 UTC
Vėjas 5 kt iš Rytų/Pietryčių
Matomumas 10 km arba daugiau
Su prošvaistėmis ne aukštis 2000 ft

TAF: SBOI 121500Z 1218/1306 12005KT 9999 BKN020 TX25/1219Z TN23/1306Z RMK PGY

Orai ataskaitas ir orų prognozės (METAR, TAF).

turimą stotys yra geltonos ir raudonos taškus žemėlapyje.

Perkelti pele per norėdami pamatyti stoties vardą.

Tada spustelėkite, norėdami matyti oro stebėjimo ir prognozės.

Norėdami pakeisti žemėlapį: spustelėkite ant žalios mygtukų su juodo kryžiaus žemyn,; žalią mygtuką su brūkšneliu, jei norite nutolinti; arba žalių rodyklių gretimoms žemėlapius.


METAR-TAF: